Time;durP1;ratioP1;P1;durP2;ratioP2;P2;SDS_P1;SDS_P2;PMS_P1;PMS_P2;Temp;Humidity;BMP_temperature;BMP_pressure;BME280_temperature;BME280_humidity;BME280_pressure;Samples;Min_cycle;Max_cycle;Signal;HPM_P1;HPM_P2
2024/02/05 00:01:19;;;;;;;2.35;1.20;;;;;;;;;;5025423;28;20068;-59
2024/02/05 00:03:45;;;;;;;2.10;1.20;;;;;;;;;;5028435;28;20124;-59
2024/02/05 00:06:11;;;;;;;2.60;1.38;;;;;;;;;;5028708;28;20116;-59
2024/02/05 00:08:36;;;;;;;2.90;1.38;;;;;;;;;;5028312;28;20103;-59
2024/02/05 00:11:02;;;;;;;2.22;1.10;;;;;;;;;;5027480;28;20144;-59
2024/02/05 00:13:27;;;;;;;2.00;1.10;;;;;;;;;;5036045;28;20033;-59
2024/02/05 00:15:52;;;;;;;1.98;1.25;;;;;;;;;;5007563;28;20561;-59
2024/02/05 00:18:18;;;;;;;1.85;1.17;;;;;;;;;;5023652;28;20083;-59
2024/02/05 00:20:43;;;;;;;2.15;1.40;;;;;;;;;;5034671;28;20048;-59
2024/02/05 00:23:08;;;;;;;2.20;1.20;;;;;;;;;;5027263;28;20087;-59
2024/02/05 00:25:34;;;;;;;2.55;1.45;;;;;;;;;;5028552;28;20076;-59
2024/02/05 00:27:59;;;;;;;2.95;1.10;;;;;;;;;;5028180;28;20045;-60
2024/02/05 00:30:24;;;;;;;2.83;1.33;;;;;;;;;;5033061;28;20657;-59
2024/02/05 00:32:49;;;;;;;3.03;1.20;;;;;;;;;;5027970;28;20124;-59
2024/02/05 00:35:15;;;;;;;2.95;1.33;;;;;;;;;;5034421;28;20090;-59
2024/02/05 00:37:40;;;;;;;2.17;1.33;;;;;;;;;;5028206;28;20033;-59
2024/02/05 00:40:06;;;;;;;3.17;1.27;;;;;;;;;;5028079;28;20107;-60
2024/02/05 00:42:32;;;;;;;2.95;1.30;;;;;;;;;;5027262;28;20045;-60
2024/02/05 00:44:57;;;;;;;2.70;1.40;;;;;;;;;;5028232;28;20125;-60
2024/02/05 00:47:22;;;;;;;2.28;1.33;;;;;;;;;;5026056;28;20545;-60
2024/02/05 00:49:48;;;;;;;2.50;1.25;;;;;;;;;;5027810;28;20033;-60
2024/02/05 00:52:14;;;;;;;2.15;1.05;;;;;;;;;;5027422;28;20034;-60
2024/02/05 00:54:39;;;;;;;2.50;1.35;;;;;;;;;;5027478;28;20147;-61
2024/02/05 00:57:05;;;;;;;1.73;1.10;;;;;;;;;;5028038;28;20507;-60
2024/02/05 00:59:30;;;;;;;2.47;1.40;;;;;;;;;;5007402;28;20022;-61
2024/02/05 01:01:56;;;;;;;2.20;1.23;;;;;;;;;;5028671;28;20468;-60
2024/02/05 01:04:21;;;;;;;2.45;1.60;;;;;;;;;;5027365;28;20048;-61
2024/02/05 01:06:47;;;;;;;2.05;1.30;;;;;;;;;;5027753;28;20826;-61
2024/02/05 01:09:12;;;;;;;2.45;1.45;;;;;;;;;;5027719;28;20044;-61
2024/02/05 01:11:38;;;;;;;2.40;1.40;;;;;;;;;;5008739;28;20021;-61
2024/02/05 01:14:03;;;;;;;2.20;1.20;;;;;;;;;;5013250;28;20025;-60
2024/02/05 01:16:29;;;;;;;2.42;1.40;;;;;;;;;;5026951;28;20500;-60
2024/02/05 01:18:54;;;;;;;1.75;1.15;;;;;;;;;;5025957;28;20049;-60
2024/02/05 01:21:19;;;;;;;3.00;1.65;;;;;;;;;;5013042;28;20095;-60
2024/02/05 01:23:45;;;;;;;4.15;1.50;;;;;;;;;;5029546;28;20038;-60
2024/02/05 01:26:10;;;;;;;2.10;1.45;;;;;;;;;;5027354;28;20038;-60
2024/02/05 01:28:35;;;;;;;2.20;1.40;;;;;;;;;;5026927;28;20049;-60
2024/02/05 01:31:01;;;;;;;2.10;1.40;;;;;;;;;;5026966;28;20095;-60
2024/02/05 01:33:26;;;;;;;3.20;1.60;;;;;;;;;;5026174;28;20033;-60
2024/02/05 01:35:51;;;;;;;2.33;1.42;;;;;;;;;;5026918;28;20018;-60
2024/02/05 01:38:17;;;;;;;3.10;1.67;;;;;;;;;;5027229;28;20164;-61
2024/02/05 01:40:42;;;;;;;2.85;1.52;;;;;;;;;;5026516;28;20107;-61
2024/02/05 01:43:07;;;;;;;2.95;1.60;;;;;;;;;;5030185;28;20044;-60
2024/02/05 01:45:33;;;;;;;2.50;1.52;;;;;;;;;;5033130;28;20033;-60
2024/02/05 01:47:59;;;;;;;2.17;1.60;;;;;;;;;;5021962;28;20140;-59
2024/02/05 01:50:24;;;;;;;3.80;1.75;;;;;;;;;;4993651;28;20129;-59
2024/02/05 01:52:49;;;;;;;2.53;1.42;;;;;;;;;;5025545;28;20052;-59
2024/02/05 01:55:16;;;;;;;2.30;1.60;;;;;;;;;;5029679;28;20028;-59
2024/02/05 01:57:41;;;;;;;3.17;1.98;;;;;;;;;;5037009;28;20520;-60
2024/02/05 02:00:10;;;;;;;2.58;1.50;;;;;;;;;;5026394;28;20112;-60
2024/02/05 02:02:36;;;;;;;2.90;1.52;;;;;;;;;;5013054;28;20041;-59
2024/02/05 02:05:02;;;;;;;2.80;1.60;;;;;;;;;;5004992;28;20026;-60
2024/02/05 02:07:28;;;;;;;2.33;1.65;;;;;;;;;;5014260;28;20057;-59
2024/02/05 02:09:53;;;;;;;2.22;1.38;;;;;;;;;;5034056;28;20072;-60
2024/02/05 02:12:19;;;;;;;3.13;1.83;;;;;;;;;;5025916;28;20447;-60
2024/02/05 02:14:44;;;;;;;3.00;1.90;;;;;;;;;;5025276;28;20041;-60
2024/02/05 02:17:10;;;;;;;3.00;1.70;;;;;;;;;;5026522;28;20033;-60
2024/02/05 02:19:46;;;;;;;3.15;1.63;;;;;;;;;;5030531;28;20050;-60
2024/02/05 02:22:23;;;;;;;3.10;1.75;;;;;;;;;;5026171;28;20120;-60
2024/02/05 02:24:49;;;;;;;3.15;1.90;;;;;;;;;;5025394;28;20120;-61
2024/02/05 02:27:14;;;;;;;2.63;1.73;;;;;;;;;;5026193;28;20121;-59
2024/02/05 02:29:39;;;;;;;2.78;1.75;;;;;;;;;;5025711;28;20052;-59
2024/02/05 02:32:25;;;;;;;2.80;1.90;;;;;;;;;;5025912;28;20076;-59
2024/02/05 02:34:50;;;;;;;2.67;1.52;;;;;;;;;;5011534;28;20378;-59
2024/02/05 02:37:15;;;;;;;3.05;1.90;;;;;;;;;;5004669;28;20049;-59
2024/02/05 02:39:48;;;;;;;3.40;2.00;;;;;;;;;;4997637;28;20523;-59
2024/02/05 02:42:14;;;;;;;2.78;1.88;;;;;;;;;;5025342;28;20041;-60
2024/02/05 02:44:39;;;;;;;3.70;1.98;;;;;;;;;;5011486;28;20574;-60
2024/02/05 02:47:04;;;;;;;2.50;1.60;;;;;;;;;;5025085;28;20030;-59
2024/02/05 02:49:29;;;;;;;2.65;1.80;;;;;;;;;;5007929;28;20045;-59
2024/02/05 02:51:55;;;;;;;2.33;1.80;;;;;;;;;;5015417;28;20030;-59
2024/02/05 02:54:20;;;;;;;2.40;1.80;;;;;;;;;;5024986;28;20560;-60
2024/02/05 02:56:45;;;;;;;3.22;1.80;;;;;;;;;;5023334;28;20583;-60
2024/02/05 02:59:11;;;;;;;3.25;2.13;;;;;;;;;;5023308;28;20132;-60
2024/02/05 03:01:37;;;;;;;3.15;1.90;;;;;;;;;;5013010;28;20057;-60
2024/02/05 03:04:02;;;;;;;2.80;2.08;;;;;;;;;;5024394;28;20041;-61
2024/02/05 03:06:27;;;;;;;2.88;1.90;;;;;;;;;;5024088;28;20033;-60
2024/02/05 03:08:53;;;;;;;3.42;2.30;;;;;;;;;;5011900;28;20922;-60
2024/02/05 03:11:19;;;;;;;3.40;2.00;;;;;;;;;;5014067;28;20033;-59
2024/02/05 03:13:44;;;;;;;3.10;2.00;;;;;;;;;;5022709;28;20777;-60
2024/02/05 03:16:09;;;;;;;2.45;1.70;;;;;;;;;;5022559;28;20048;-59
2024/02/05 03:18:35;;;;;;;2.95;1.73;;;;;;;;;;5029487;28;20029;-60
2024/02/05 03:21:00;;;;;;;2.95;2.17;;;;;;;;;;5032745;28;20030;-60
2024/02/05 03:23:26;;;;;;;2.75;1.80;;;;;;;;;;5033483;28;20038;-60
2024/02/05 03:25:51;;;;;;;2.63;1.85;;;;;;;;;;5033989;28;20037;-60
2024/02/05 03:28:16;;;;;;;2.97;1.88;;;;;;;;;;5029054;28;20042;-60
2024/02/05 03:30:42;;;;;;;3.50;2.13;;;;;;;;;;5027452;28;20055;-60
2024/02/05 03:33:08;;;;;;;3.55;2.20;;;;;;;;;;5026414;28;20456;-61
2024/02/05 03:35:33;;;;;;;3.42;1.83;;;;;;;;;;5026540;28;20044;-60
2024/02/05 03:37:58;;;;;;;3.83;2.30;;;;;;;;;;5020358;28;20120;-61
2024/02/05 03:40:24;;;;;;;2.50;1.70;;;;;;;;;;5024812;28;20539;-61
2024/02/05 03:42:49;;;;;;;3.10;2.00;;;;;;;;;;5016873;28;20034;-60
2024/02/05 03:45:15;;;;;;;4.43;2.15;;;;;;;;;;5023375;28;20045;-60
2024/02/05 03:47:41;;;;;;;2.78;2.05;;;;;;;;;;5018838;28;20065;-60
2024/02/05 03:50:10;;;;;;;4.95;2.35;;;;;;;;;;5022225;28;20589;-60
2024/02/05 03:52:36;;;;;;;3.83;2.25;;;;;;;;;;5027513;28;20088;-60
2024/02/05 03:55:01;;;;;;;2.70;1.95;;;;;;;;;;5021664;28;20034;-60
2024/02/05 03:57:26;;;;;;;3.47;2.00;;;;;;;;;;5026288;28;20036;-60
2024/02/05 03:59:54;;;;;;;3.10;2.35;;;;;;;;;;5020246;28;20678;-60
2024/02/05 04:02:21;;;;;;;2.90;1.92;;;;;;;;;;5018989;28;20041;-60
2024/02/05 04:04:46;;;;;;;3.17;2.15;;;;;;;;;;5016087;28;20084;-60
2024/02/05 04:07:12;;;;;;;3.78;2.15;;;;;;;;;;5017151;28;20053;-59
2024/02/05 04:09:37;;;;;;;3.30;2.00;;;;;;;;;;5026637;28;20025;-60
2024/02/05 04:12:02;;;;;;;3.67;2.22;;;;;;;;;;5025770;28;20079;-59
2024/02/05 04:14:28;;;;;;;3.40;2.25;;;;;;;;;;5018416;28;20041;-59
2024/02/05 04:16:53;;;;;;;3.00;2.15;;;;;;;;;;5024912;28;20060;-60
2024/02/05 04:19:18;;;;;;;2.97;2.17;;;;;;;;;;5014435;28;20060;-60
2024/02/05 04:21:44;;;;;;;3.20;2.13;;;;;;;;;;5024214;28;20408;-59
2024/02/05 04:24:09;;;;;;;3.42;2.13;;;;;;;;;;5018761;28;20053;-59
2024/02/05 04:26:34;;;;;;;3.50;2.22;;;;;;;;;;5025246;28;20087;-60
2024/02/05 04:28:59;;;;;;;3.55;2.22;;;;;;;;;;5015194;28;20045;-59
2024/02/05 04:31:25;;;;;;;3.33;2.13;;;;;;;;;;5027173;28;20042;-60
2024/02/05 04:33:50;;;;;;;2.95;2.20;;;;;;;;;;5025015;28;20068;-60
2024/02/05 04:36:16;;;;;;;3.53;2.15;;;;;;;;;;5016847;28;20108;-60
2024/02/05 04:38:41;;;;;;;2.75;1.92;;;;;;;;;;5026161;28;20116;-60
2024/02/05 04:41:07;;;;;;;3.13;2.15;;;;;;;;;;5012897;28;20064;-59
2024/02/05 04:43:33;;;;;;;2.47;1.70;;;;;;;;;;5024432;28;20065;-60
2024/02/05 04:45:58;;;;;;;3.45;2.13;;;;;;;;;;5021322;28;20064;-60
2024/02/05 04:48:23;;;;;;;2.75;2.00;;;;;;;;;;5024654;28;20046;-60
2024/02/05 04:50:48;;;;;;;3.58;2.40;;;;;;;;;;5027053;28;20044;-59
2024/02/05 04:53:14;;;;;;;3.22;2.38;;;;;;;;;;5027766;28;20543;-59
2024/02/05 04:55:41;;;;;;;2.58;1.95;;;;;;;;;;5009361;28;20041;-59
2024/02/05 04:58:10;;;;;;;3.20;2.13;;;;;;;;;;5027962;28;20038;-60
2024/02/05 05:00:35;;;;;;;2.92;2.20;;;;;;;;;;5025699;28;20798;-60
2024/02/05 05:03:01;;;;;;;3.47;2.42;;;;;;;;;;5027590;28;20042;-59
2024/02/05 05:05:26;;;;;;;3.35;2.20;;;;;;;;;;5026823;28;20046;-59
2024/02/05 05:07:51;;;;;;;2.85;2.00;;;;;;;;;;5027180;28;20037;-60
2024/02/05 05:10:17;;;;;;;2.80;2.05;;;;;;;;;;5027517;28;20091;-60
2024/02/05 05:12:42;;;;;;;3.67;2.30;;;;;;;;;;5026850;28;20064;-61
2024/02/05 05:15:07;;;;;;;2.90;2.22;;;;;;;;;;5008746;28;20044;-60
2024/02/05 05:17:33;;;;;;;3.17;2.00;;;;;;;;;;5027316;28;20056;-60
2024/02/05 05:19:58;;;;;;;3.08;2.00;;;;;;;;;;5025302;28;20037;-60
2024/02/05 05:22:23;;;;;;;5.70;2.28;;;;;;;;;;5027058;28;20052;-60
2024/02/05 05:24:49;;;;;;;3.33;2.28;;;;;;;;;;5025713;28;20034;-61
2024/02/05 05:27:14;;;;;;;4.25;2.63;;;;;;;;;;5027223;28;20104;-58
2024/02/05 05:29:39;;;;;;;3.13;2.22;;;;;;;;;;5027249;28;20862;-60
2024/02/05 05:32:05;;;;;;;3.03;1.90;;;;;;;;;;5026406;28;20037;-61
2024/02/05 05:34:30;;;;;;;3.00;2.10;;;;;;;;;;5026800;28;20033;-60
2024/02/05 05:36:55;;;;;;;3.80;2.10;;;;;;;;;;5026060;28;20030;-59
2024/02/05 05:39:21;;;;;;;3.20;2.13;;;;;;;;;;5026618;28;20327;-60
2024/02/05 05:41:46;;;;;;;2.95;1.90;;;;;;;;;;5025618;28;20128;-60
2024/02/05 05:44:11;;;;;;;3.13;2.00;;;;;;;;;;5026913;28;20045;-59
2024/02/05 05:46:37;;;;;;;3.28;2.05;;;;;;;;;;5025465;28;20470;-60
2024/02/05 05:49:03;;;;;;;2.75;2.03;;;;;;;;;;5023753;28;20033;-60
2024/02/05 05:51:28;;;;;;;3.75;2.33;;;;;;;;;;5026591;28;20136;-60
2024/02/05 05:53:53;;;;;;;3.30;2.00;;;;;;;;;;5025877;28;20464;-60
2024/02/05 05:56:18;;;;;;;3.63;2.00;;;;;;;;;;5025583;28;20040;-59
2024/02/05 05:58:44;;;;;;;3.55;1.92;;;;;;;;;;5025876;28;20030;-60
2024/02/05 06:01:09;;;;;;;3.08;2.03;;;;;;;;;;5026190;28;20052;-60
2024/02/05 06:03:36;;;;;;;3.60;2.38;;;;;;;;;;5007183;28;20077;-59
2024/02/05 06:06:04;;;;;;;3.70;2.33;;;;;;;;;;5025233;28;20132;-59
2024/02/05 06:08:29;;;;;;;2.70;1.80;;;;;;;;;;5026104;28;20099;-60
2024/02/05 06:10:55;;;;;;;2.83;1.90;;;;;;;;;;5024312;28;20674;-60
2024/02/05 06:13:20;;;;;;;3.08;2.28;;;;;;;;;;5025710;28;20034;-59
2024/02/05 06:15:45;;;;;;;4.03;2.40;;;;;;;;;;5024428;28;20045;-60
2024/02/05 06:18:12;;;;;;;3.47;2.17;;;;;;;;;;5025107;28;20082;-60
2024/02/05 06:20:37;;;;;;;3.20;2.05;;;;;;;;;;5023614;28;20029;-61
2024/02/05 06:23:04;;;;;;;3.05;2.00;;;;;;;;;;5026287;28;20424;-60
2024/02/05 06:25:30;;;;;;;3.35;2.00;;;;;;;;;;5008234;28;20103;-60
2024/02/05 06:27:55;;;;;;;3.20;2.25;;;;;;;;;;5025468;28;20499;-60
2024/02/05 06:30:20;;;;;;;3.08;2.20;;;;;;;;;;5025492;28;20045;-60
2024/02/05 06:32:46;;;;;;;7.68;2.35;;;;;;;;;;5025730;28;20038;-60
2024/02/05 06:35:11;;;;;;;4.20;2.05;;;;;;;;;;5025245;28;20070;-61
2024/02/05 06:37:36;;;;;;;5.68;2.22;;;;;;;;;;5024603;28;20085;-60
2024/02/05 06:40:02;;;;;;;6.80;2.72;;;;;;;;;;5025365;28;20029;-61
2024/02/05 06:42:27;;;;;;;10.60;2.17;;;;;;;;;;5024876;28;20831;-61
2024/02/05 06:44:53;;;;;;;8.98;2.15;;;;;;;;;;5024229;28;20120;-60
2024/02/05 06:47:18;;;;;;;8.50;2.67;;;;;;;;;;5023632;28;20116;-60
2024/02/05 06:49:43;;;;;;;7.80;2.97;;;;;;;;;;5024396;28;20504;-61
2024/02/05 06:52:08;;;;;;;6.13;2.25;;;;;;;;;;5025376;28;20029;-60
2024/02/05 06:54:34;;;;;;;11.60;2.53;;;;;;;;;;5024610;28;20514;-59
2024/02/05 06:57:02;;;;;;;6.78;2.00;;;;;;;;;;5024084;28;20041;-61
2024/02/05 06:59:27;;;;;;;6.95;2.40;;;;;;;;;;5025342;28;20522;-60
2024/02/05 07:01:52;;;;;;;8.40;2.45;;;;;;;;;;5025501;28;20038;-60
2024/02/05 07:04:18;;;;;;;6.70;2.40;;;;;;;;;;5024332;28;20064;-60
2024/02/05 07:06:43;;;;;;;9.52;3.35;;;;;;;;;;5024839;28;20459;-60
2024/02/05 07:09:08;;;;;;;6.72;2.67;;;;;;;;;;5025299;28;20041;-61
2024/02/05 07:11:34;;;;;;;7.35;2.13;;;;;;;;;;5027020;28;20034;-61
2024/02/05 07:13:59;;;;;;;5.65;2.45;;;;;;;;;;5029932;28;20068;-66
2024/02/05 07:16:24;;;;;;;6.78;2.55;;;;;;;;;;5026104;28;20041;-61
2024/02/05 07:18:50;;;;;;;6.70;2.03;;;;;;;;;;5028157;28;20320;-60
2024/02/05 07:21:15;;;;;;;6.82;2.40;;;;;;;;;;5029512;28;20033;-60
2024/02/05 07:23:41;;;;;;;10.23;3.10;;;;;;;;;;5029216;28;20559;-60
2024/02/05 07:26:06;;;;;;;12.35;3.20;;;;;;;;;;5010108;28;20073;-60
2024/02/05 07:28:31;;;;;;;5.70;2.40;;;;;;;;;;5028415;28;20095;-60
2024/02/05 07:30:57;;;;;;;8.02;2.50;;;;;;;;;;5029273;28;20091;-59
2024/02/05 07:33:22;;;;;;;6.82;2.35;;;;;;;;;;5029032;28;20033;-59
2024/02/05 07:35:47;;;;;;;7.75;2.42;;;;;;;;;;5027675;28;20061;-60
2024/02/05 07:38:13;;;;;;;11.65;2.53;;;;;;;;;;5028810;28;20040;-59
2024/02/05 07:40:38;;;;;;;5.15;2.30;;;;;;;;;;5029598;28;20466;-59
2024/02/05 07:43:03;;;;;;;9.20;2.28;;;;;;;;;;5028318;28;20193;-61
2024/02/05 07:45:30;;;;;;;10.27;2.58;;;;;;;;;;5029275;28;20064;-61
2024/02/05 07:47:55;;;;;;;8.32;2.58;;;;;;;;;;5027824;28;20029;-60
2024/02/05 07:50:21;;;;;;;10.10;2.60;;;;;;;;;;5024880;28;20040;-60
2024/02/05 07:52:46;;;;;;;10.18;2.92;;;;;;;;;;5026130;28;20013;-61
2024/02/05 07:55:11;;;;;;;7.32;2.47;;;;;;;;;;5026404;28;20040;-63
2024/02/05 07:57:36;;;;;;;7.95;2.60;;;;;;;;;;5028791;28;20190;-60
2024/02/05 08:00:02;;;;;;;6.35;2.72;;;;;;;;;;5028406;28;20033;-61
2024/02/05 08:02:27;;;;;;;6.90;3.28;;;;;;;;;;5028509;28;20021;-61
2024/02/05 08:04:54;;;;;;;6.57;2.40;;;;;;;;;;5027220;28;20026;-61
2024/02/05 08:07:19;;;;;;;7.72;2.88;;;;;;;;;;5027865;28;20193;-60
2024/02/05 08:09:44;;;;;;;7.60;2.55;;;;;;;;;;5028150;28;20111;-60
2024/02/05 08:12:12;;;;;;;8.10;2.55;;;;;;;;;;5027284;28;20013;-61
2024/02/05 08:14:37;;;;;;;5.72;2.35;;;;;;;;;;5025958;28;20028;-61
2024/02/05 08:17:02;;;;;;;4.85;2.40;;;;;;;;;;5027703;28;20022;-60
2024/02/05 08:19:28;;;;;;;5.40;2.47;;;;;;;;;;5024757;28;20089;-60
2024/02/05 08:21:53;;;;;;;5.63;2.58;;;;;;;;;;5027119;28;20048;-60
2024/02/05 08:24:19;;;;;;;5.78;2.55;;;;;;;;;;5027916;28;20072;-60
2024/02/05 08:26:45;;;;;;;7.15;2.42;;;;;;;;;;5026737;28;20036;-59
2024/02/05 08:29:10;;;;;;;6.65;2.25;;;;;;;;;;5026794;28;20033;-60
2024/02/05 08:31:36;;;;;;;6.50;3.05;;;;;;;;;;5010933;28;20025;-58
2024/02/05 08:34:05;;;;;;;5.53;2.45;;;;;;;;;;5021688;28;20053;-60
2024/02/05 08:36:30;;;;;;;7.32;2.50;;;;;;;;;;5027643;28;20329;-59
2024/02/05 08:38:56;;;;;;;6.43;2.60;;;;;;;;;;5026979;28;20025;-62
2024/02/05 08:41:21;;;;;;;5.28;2.35;;;;;;;;;;5028345;28;20136;-59
2024/02/05 08:43:46;;;;;;;5.75;2.55;;;;;;;;;;5026948;28;20528;-58
2024/02/05 08:46:12;;;;;;;5.80;2.72;;;;;;;;;;5028322;28;20021;-60
2024/02/05 08:48:38;;;;;;;5.40;2.42;;;;;;;;;;5026803;28;20526;-59
2024/02/05 08:51:03;;;;;;;5.97;2.63;;;;;;;;;;5000443;28;20073;-60
2024/02/05 08:53:29;;;;;;;5.00;2.63;;;;;;;;;;5027458;28;20037;-60
2024/02/05 08:55:54;;;;;;;6.72;2.47;;;;;;;;;;5027753;28;20424;-60
2024/02/05 08:58:19;;;;;;;4.93;2.40;;;;;;;;;;5027606;28;20042;-61
2024/02/05 09:00:46;;;;;;;4.88;2.40;;;;;;;;;;5027825;28;20142;-60
2024/02/05 09:03:11;;;;;;;5.10;2.25;;;;;;;;;;5027452;28;20045;-58
2024/02/05 09:05:37;;;;;;;4.75;2.28;;;;;;;;;;5027108;28;20060;-60
2024/02/05 09:08:02;;;;;;;5.43;2.40;;;;;;;;;;5025600;28;20505;-59
2024/02/05 09:10:27;;;;;;;8.00;2.80;;;;;;;;;;5027913;28;20076;-61
2024/02/05 09:12:53;;;;;;;5.03;2.20;;;;;;;;;;5027315;28;20597;-58
2024/02/05 09:15:19;;;;;;;6.15;2.80;;;;;;;;;;5026951;28;20029;-58
2024/02/05 09:17:44;;;;;;;4.38;2.20;;;;;;;;;;5024653;28;20107;-60
2024/02/05 09:20:10;;;;;;;4.50;2.40;;;;;;;;;;5027769;28;20038;-59
2024/02/05 09:22:35;;;;;;;4.60;2.60;;;;;;;;;;5026999;28;20066;-60
2024/02/05 09:25:00;;;;;;;4.80;2.17;;;;;;;;;;5027207;28;20057;-60
2024/02/05 09:27:26;;;;;;;4.10;2.20;;;;;;;;;;5026427;28;20043;-60
2024/02/05 09:29:53;;;;;;;3.80;2.17;;;;;;;;;;5024665;28;20061;-60
2024/02/05 09:32:19;;;;;;;3.38;1.85;;;;;;;;;;5027207;28;20025;-60
2024/02/05 09:34:44;;;;;;;4.40;2.30;;;;;;;;;;5026704;28;20033;-60
2024/02/05 09:37:11;;;;;;;4.72;2.30;;;;;;;;;;5026951;28;20818;-59
2024/02/05 09:39:36;;;;;;;3.65;2.08;;;;;;;;;;5019444;28;20484;-60
2024/02/05 09:42:01;;;;;;;4.13;2.22;;;;;;;;;;5026007;28;20052;-61
2024/02/05 09:44:27;;;;;;;3.97;2.15;;;;;;;;;;5028262;28;20033;-60
2024/02/05 09:46:52;;;;;;;5.40;2.72;;;;;;;;;;5024846;28;20030;-60
2024/02/05 09:49:17;;;;;;;5.28;2.50;;;;;;;;;;5007903;28;20052;-60
2024/02/05 09:51:44;;;;;;;5.35;2.15;;;;;;;;;;5026438;28;20033;-61
2024/02/05 09:54:09;;;;;;;3.58;2.30;;;;;;;;;;5023935;28;20073;-60
2024/02/05 09:56:35;;;;;;;3.83;1.77;;;;;;;;;;5024834;28;20127;-60
2024/02/05 09:59:00;;;;;;;3.17;2.22;;;;;;;;;;5024040;28;20462;-59
2024/02/05 10:01:25;;;;;;;3.58;1.75;;;;;;;;;;5026080;28;20041;-60
2024/02/05 10:03:53;;;;;;;6.07;2.03;;;;;;;;;;5024336;28;20042;-60
2024/02/05 10:06:18;;;;;;;5.28;1.88;;;;;;;;;;5008333;28;20043;-60
2024/02/05 10:08:51;;;;;;;3.92;1.88;;;;;;;;;;5006099;28;20481;-58
2024/02/05 10:11:17;;;;;;;3.40;2.00;;;;;;;;;;5019781;28;20130;-60
2024/02/05 10:13:42;;;;;;;3.35;1.80;;;;;;;;;;4995236;28;20104;-60
2024/02/05 10:16:08;;;;;;;4.25;2.10;;;;;;;;;;5008167;28;20044;-59
2024/02/05 10:18:33;;;;;;;3.42;1.95;;;;;;;;;;5024355;28;20033;-59
2024/02/05 10:21:00;;;;;;;3.80;1.73;;;;;;;;;;5026691;28;20132;-60
2024/02/05 10:23:25;;;;;;;5.53;2.10;;;;;;;;;;5025443;28;20099;-60
2024/02/05 10:25:51;;;;;;;5.07;2.20;;;;;;;;;;5026670;28;20064;-60
2024/02/05 10:28:19;;;;;;;3.97;1.90;;;;;;;;;;5024307;28;20033;-60
2024/02/05 10:30:44;;;;;;;4.03;2.13;;;;;;;;;;5025643;28;20036;-60
2024/02/05 10:33:10;;;;;;;4.75;1.80;;;;;;;;;;5026598;28;20029;-59
2024/02/05 10:35:35;;;;;;;4.38;1.88;;;;;;;;;;5006758;28;20442;-59
2024/02/05 10:38:08;;;;;;;4.85;2.00;;;;;;;;;;5019264;28;20040;-59
2024/02/05 10:40:34;;;;;;;5.32;2.13;;;;;;;;;;5025095;28;20057;-59
2024/02/05 10:42:59;;;;;;;3.92;2.05;;;;;;;;;;5030490;28;20049;-59
2024/02/05 10:45:25;;;;;;;3.22;1.80;;;;;;;;;;5030004;28;20044;-59
2024/02/05 10:47:50;;;;;;;4.22;1.98;;;;;;;;;;5029646;28;20168;-59
2024/02/05 10:50:16;;;;;;;3.97;2.00;;;;;;;;;;5025757;28;20798;-60
2024/02/05 10:52:42;;;;;;;6.50;1.70;;;;;;;;;;5008536;28;20105;-61
2024/02/05 10:55:08;;;;;;;4.15;1.83;;;;;;;;;;5001437;28;20510;-58
2024/02/05 10:57:35;;;;;;;3.20;1.90;;;;;;;;;;5028194;28;20029;-60
2024/02/05 11:00:01;;;;;;;5.05;1.90;;;;;;;;;;5010221;28;20513;-59
2024/02/05 11:02:32;;;;;;;3.33;1.63;;;;;;;;;;5019416;28;20045;-59
2024/02/05 11:04:59;;;;;;;3.40;1.90;;;;;;;;;;5005449;28;20054;-58
2024/02/05 11:07:25;;;;;;;4.40;1.98;;;;;;;;;;5017161;28;20048;-59
2024/02/05 11:09:50;;;;;;;5.25;1.80;;;;;;;;;;5024989;28;20057;-59
2024/02/05 11:12:17;;;;;;;4.45;1.88;;;;;;;;;;5013772;28;20049;-59
2024/02/05 11:14:42;;;;;;;4.43;1.95;;;;;;;;;;5009353;28;20072;-59
2024/02/05 11:17:07;;;;;;;2.85;1.70;;;;;;;;;;5024299;28;20423;-61
2024/02/05 11:19:33;;;;;;;4.32;1.70;;;;;;;;;;5024745;28;20179;-59
2024/02/05 11:21:58;;;;;;;4.00;1.90;;;;;;;;;;5025489;28;20041;-59
2024/02/05 11:24:23;;;;;;;4.15;2.00;;;;;;;;;;5022074;28;20480;-58
2024/02/05 11:26:51;;;;;;;3.30;1.70;;;;;;;;;;5024142;28;20038;-60
2024/02/05 11:29:24;;;;;;;4.28;1.95;;;;;;;;;;5019272;28;20030;-60
2024/02/05 11:31:49;;;;;;;4.10;2.10;;;;;;;;;;5023807;28;20117;-61
2024/02/05 11:34:16;;;;;;;4.38;1.67;;;;;;;;;;5015348;28;20148;-62
2024/02/05 11:36:42;;;;;;;3.80;1.88;;;;;;;;;;5006794;28;20029;-61
2024/02/05 11:39:09;;;;;;;18.83;2.63;;;;;;;;;;5024104;28;20571;-60
2024/02/05 11:41:35;;;;;;;4.10;1.88;;;;;;;;;;5024082;28;20167;-60
2024/02/05 11:44:03;;;;;;;4.20;1.98;;;;;;;;;;5024976;28;20080;-59
2024/02/05 11:46:28;;;;;;;3.38;1.63;;;;;;;;;;5024974;28;20511;-60
2024/02/05 11:48:53;;;;;;;2.78;1.70;;;;;;;;;;5023630;28;20061;-60
2024/02/05 11:51:18;;;;;;;3.22;1.80;;;;;;;;;;5024749;28;20025;-59
2024/02/05 11:53:46;;;;;;;2.60;1.58;;;;;;;;;;5024059;28;20846;-61
2024/02/05 11:56:11;;;;;;;2.90;1.77;;;;;;;;;;5025544;28;20057;-60
2024/02/05 11:58:37;;;;;;;3.08;1.85;;;;;;;;;;5027927;28;20511;-59
2024/02/05 12:01:03;;;;;;;4.35;1.55;;;;;;;;;;5027034;28;20029;-60
2024/02/05 12:03:28;;;;;;;4.95;2.00;;;;;;;;;;5029297;28;20431;-61
2024/02/05 12:05:53;;;;;;;2.90;1.90;;;;;;;;;;5027819;28;20192;-60
2024/02/05 12:08:18;;;;;;;3.92;1.80;;;;;;;;;;5010456;28;20686;-60
2024/02/05 12:10:44;;;;;;;4.10;1.70;;;;;;;;;;5005957;28;20026;-58
2024/02/05 12:13:09;;;;;;;2.35;1.20;;;;;;;;;;5028814;28;20433;-59
2024/02/05 12:15:37;;;;;;;3.90;1.60;;;;;;;;;;5024834;28;20056;-60
2024/02/05 12:18:03;;;;;;;3.60;1.73;;;;;;;;;;5027858;28;20037;-61
2024/02/05 12:20:29;;;;;;;3.80;1.92;;;;;;;;;;5006312;28;20033;-60
2024/02/05 12:22:55;;;;;;;2.92;1.60;;;;;;;;;;5027318;28;20025;-60
2024/02/05 12:25:20;;;;;;;2.88;1.58;;;;;;;;;;5027927;28;20061;-60
2024/02/05 12:27:47;;;;;;;2.60;1.50;;;;;;;;;;5027855;28;20168;-61
2024/02/05 12:30:12;;;;;;;4.32;2.08;;;;;;;;;;5026961;28;20053;-60
2024/02/05 12:32:38;;;;;;;4.45;2.03;;;;;;;;;;5028416;28;20111;-59
2024/02/05 12:35:03;;;;;;;3.03;1.50;;;;;;;;;;5027531;28;20041;-60
2024/02/05 12:37:28;;;;;;;3.88;1.60;;;;;;;;;;5027970;28;20042;-61
2024/02/05 12:39:55;;;;;;;3.85;1.90;;;;;;;;;;5027535;28;20453;-60
2024/02/05 12:42:23;;;;;;;2.58;1.50;;;;;;;;;;5028143;28;20033;-60
2024/02/05 12:44:50;;;;;;;3.28;1.50;;;;;;;;;;5026837;28;20411;-60
2024/02/05 12:47:15;;;;;;;2.58;1.30;;;;;;;;;;4992033;28;20083;-60
2024/02/05 12:49:41;;;;;;;4.03;1.40;;;;;;;;;;5025966;28;20033;-60
2024/02/05 12:52:06;;;;;;;2.20;1.10;;;;;;;;;;5022353;28;20034;-64
2024/02/05 12:54:32;;;;;;;3.38;1.42;;;;;;;;;;5028192;28;20120;-61
2024/02/05 12:56:57;;;;;;;3.55;1.52;;;;;;;;;;5028137;28;20083;-61
2024/02/05 12:59:22;;;;;;;3.75;1.40;;;;;;;;;;5028219;28;20119;-61
2024/02/05 13:01:54;;;;;;;2.17;1.20;;;;;;;;;;5027802;28;20033;-60
2024/02/05 13:04:19;;;;;;;1.98;1.13;;;;;;;;;;5028261;28;20494;-60
2024/02/05 13:06:44;;;;;;;2.90;1.38;;;;;;;;;;5028512;28;20539;-59
2024/02/05 13:09:10;;;;;;;2.20;1.30;;;;;;;;;;5027642;28;20053;-59
2024/02/05 13:11:35;;;;;;;2.97;1.23;;;;;;;;;;5009754;28;20059;-59
2024/02/05 13:14:01;;;;;;;3.20;1.20;;;;;;;;;;5026453;28;20041;-60
2024/02/05 13:16:27;;;;;;;2.55;1.25;;;;;;;;;;5010464;28;20029;-59
2024/02/05 13:18:52;;;;;;;2.28;1.00;;;;;;;;;;5027938;28;20044;-60
2024/02/05 13:21:17;;;;;;;2.25;0.90;;;;;;;;;;5027483;28;20034;-59
2024/02/05 13:23:46;;;;;;;2.15;1.00;;;;;;;;;;5028384;28;20512;-59
2024/02/05 13:26:11;;;;;;;2.65;0.82;;;;;;;;;;5027966;28;20518;-60
2024/02/05 13:28:39;;;;;;;2.33;1.15;;;;;;;;;;5028093;28;20122;-60
2024/02/05 13:31:04;;;;;;;3.45;1.00;;;;;;;;;;5027225;28;20045;-59
2024/02/05 13:33:29;;;;;;;1.90;0.80;;;;;;;;;;5027929;28;20480;-60
2024/02/05 13:35:55;;;;;;;2.05;1.05;;;;;;;;;;5027302;28;20837;-60
2024/02/05 13:38:20;;;;;;;1.90;1.00;;;;;;;;;;5028831;28;20884;-59
2024/02/05 13:40:45;;;;;;;2.05;0.70;;;;;;;;;;5027510;28;20032;-60
2024/02/05 13:43:11;;;;;;;1.77;0.80;;;;;;;;;;5027251;28;20108;-60
2024/02/05 13:45:36;;;;;;;1.55;0.75;;;;;;;;;;5027370;28;20500;-60
2024/02/05 13:48:02;;;;;;;2.63;0.90;;;;;;;;;;5027438;28;20372;-60
2024/02/05 13:50:27;;;;;;;1.98;0.88;;;;;;;;;;5026661;28;20047;-60
2024/02/05 13:52:54;;;;;;;1.60;0.98;;;;;;;;;;5026554;28;20037;-61
2024/02/05 13:55:20;;;;;;;1.58;0.70;;;;;;;;;;5027567;28;20441;-60
2024/02/05 13:57:45;;;;;;;1.65;0.85;;;;;;;;;;5009366;28;20495;-60
2024/02/05 14:00:11;;;;;;;1.55;0.70;;;;;;;;;;5027132;28;20529;-61
2024/02/05 14:02:36;;;;;;;1.88;0.70;;;;;;;;;;5025779;28;20021;-60
2024/02/05 14:05:02;;;;;;;1.40;0.70;;;;;;;;;;5025788;28;20041;-60
2024/02/05 14:07:27;;;;;;;2.10;0.90;;;;;;;;;;5026367;28;20033;-60
2024/02/05 14:09:53;;;;;;;1.10;0.60;;;;;;;;;;5008089;28;20559;-59
2024/02/05 14:12:18;;;;;;;1.15;0.70;;;;;;;;;;5025794;28;20023;-60
2024/02/05 14:14:43;;;;;;;1.55;0.70;;;;;;;;;;5025658;28;20021;-60
2024/02/05 14:17:09;;;;;;;1.95;0.70;;;;;;;;;;5025972;28;20123;-61
2024/02/05 14:19:35;;;;;;;2.22;0.90;;;;;;;;;;5025866;28;20103;-61
2024/02/05 14:22:01;;;;;;;2.92;0.80;;;;;;;;;;5025088;28;20063;-60
2024/02/05 14:24:26;;;;;;;2.63;0.80;;;;;;;;;;5025589;28;20061;-61
2024/02/05 14:26:52;;;;;;;3.20;0.90;;;;;;;;;;5037576;22;20049;-62
2024/02/05 14:29:18;;;;;;;4.38;0.90;;;;;;;;;;5006187;28;20571;-61
2024/02/05 14:31:43;;;;;;;2.33;0.88;;;;;;;;;;5026282;28;20101;-63
2024/02/05 14:34:09;;;;;;;2.70;0.90;;;;;;;;;;5027253;28;20452;-61